createdAt,value
2018-03-17T00:01:27.818Z,97259
2018-03-17T00:03:55.986Z,97256
2018-03-17T00:06:39.042Z,97258
2018-03-17T00:09:07.203Z,97258
2018-03-17T00:11:35.413Z,97248
2018-03-17T00:14:04.388Z,97257
2018-03-17T00:16:34.543Z,97259
2018-03-17T00:19:02.743Z,97252
2018-03-17T00:21:30.958Z,97263
2018-03-17T00:23:59.162Z,97264
2018-03-17T00:26:28.395Z,97260
2018-03-17T00:28:56.592Z,97253
2018-03-17T00:31:24.820Z,97239
2018-03-17T00:33:53.070Z,97252
2018-03-17T00:36:22.049Z,97256
2018-03-17T00:38:51.019Z,97264
2018-03-17T00:41:19.264Z,97254
2018-03-17T00:43:48.174Z,97257
2018-03-17T00:46:17.280Z,97249
2018-03-17T00:48:45.462Z,97246
2018-03-17T00:51:13.617Z,97252
2018-03-17T00:53:41.787Z,97261
2018-03-17T00:56:11.916Z,97256
2018-03-17T00:58:40.082Z,97258
2018-03-17T01:01:08.246Z,97248
2018-03-17T01:03:36.414Z,97264
2018-03-17T01:06:11.865Z,97255
2018-03-17T01:08:40.031Z,97264
2018-03-17T01:11:15.621Z,97256
2018-03-17T01:13:43.793Z,97253
2018-03-17T01:16:11.957Z,97264
2018-03-17T01:18:40.118Z,97256
2018-03-17T01:21:08.264Z,97253
2018-03-17T01:23:36.426Z,97244
2018-03-17T01:26:04.607Z,97254
2018-03-17T01:28:32.767Z,97260
2018-03-17T01:31:00.964Z,97261
2018-03-17T01:33:29.131Z,97256
2018-03-17T01:35:59.278Z,97254
2018-03-17T01:38:27.463Z,97249
2018-03-17T01:40:55.632Z,97254
2018-03-17T01:43:23.769Z,97255
2018-03-17T01:45:51.930Z,97259
2018-03-17T01:48:20.083Z,97259
2018-03-17T01:50:49.023Z,97254
2018-03-17T01:53:17.196Z,97249
2018-03-17T01:55:52.446Z,97252
2018-03-17T01:58:20.610Z,97246
2018-03-17T02:00:48.774Z,97256
2018-03-17T02:03:16.917Z,97249
2018-03-17T02:05:45.079Z,97246
2018-03-17T02:08:14.135Z,97244
2018-03-17T02:10:42.391Z,97244
2018-03-17T02:13:10.599Z,97237
2018-03-17T02:15:39.715Z,97232
2018-03-17T02:18:08.710Z,97236
2018-03-17T02:20:37.779Z,97228
2018-03-17T02:23:06.035Z,97230
2018-03-17T02:25:34.246Z,97234
2018-03-17T02:28:02.478Z,97227
2018-03-17T02:30:30.683Z,97223
2018-03-17T02:32:58.893Z,97221
2018-03-17T02:35:27.099Z,97209
2018-03-17T02:38:06.993Z,97205
2018-03-17T02:40:35.236Z,97195
2018-03-17T02:43:03.460Z,97206
2018-03-17T02:45:31.678Z,97195
2018-03-17T02:47:59.932Z,97210
2018-03-17T02:50:28.154Z,97204
2018-03-17T02:52:56.404Z,97195
2018-03-17T02:55:24.590Z,97190
2018-03-17T02:57:53.760Z,97193
2018-03-17T03:00:21.960Z,97189
2018-03-17T03:02:50.156Z,97188
2018-03-17T03:05:18.407Z,97181
2018-03-17T03:07:59.366Z,97182
2018-03-17T03:10:27.526Z,97178
2018-03-17T03:12:55.663Z,97180
2018-03-17T03:15:24.594Z,97183
2018-03-17T03:17:56.069Z,97186
2018-03-17T03:20:24.227Z,97186
2018-03-17T03:22:52.374Z,97181
2018-03-17T03:25:20.530Z,97181
2018-03-17T03:27:49.454Z,97175
2018-03-17T03:30:17.617Z,97175
2018-03-17T03:32:45.759Z,97178
2018-03-17T03:35:14.698Z,97181
2018-03-17T03:37:42.839Z,97183
2018-03-17T03:40:11.770Z,97176
2018-03-17T03:42:39.934Z,97183
2018-03-17T03:45:08.090Z,97181
2018-03-17T03:47:37.203Z,97186
2018-03-17T03:50:05.379Z,97190
2018-03-17T03:52:33.523Z,97200
2018-03-17T03:55:01.686Z,97192
2018-03-17T03:57:31.555Z,97196
2018-03-17T03:59:59.700Z,97203
2018-03-17T04:02:28.634Z,97198
2018-03-17T04:04:56.777Z,97206
2018-03-17T04:07:25.894Z,97204
2018-03-17T04:09:54.041Z,97193
2018-03-17T04:12:22.201Z,97201
2018-03-17T04:14:50.359Z,97201
2018-03-17T04:17:18.535Z,97196
2018-03-17T04:19:46.682Z,97203
2018-03-17T04:22:14.854Z,97202
2018-03-17T04:24:43.018Z,97205
2018-03-17T04:27:11.181Z,97191
2018-03-17T04:29:39.328Z,97199
2018-03-17T04:32:07.500Z,97196
2018-03-17T04:34:35.642Z,97204
2018-03-17T04:37:15.845Z,97211
2018-03-17T04:39:43.990Z,97208
2018-03-17T04:42:12.149Z,97214
2018-03-17T04:44:40.319Z,97214
2018-03-17T04:47:09.233Z,97210
2018-03-17T04:49:38.206Z,97202
2018-03-17T04:52:06.407Z,97211
2018-03-17T04:54:34.622Z,97199
2018-03-17T04:57:04.803Z,97203
2018-03-17T04:59:33.038Z,97201
2018-03-17T05:02:02.024Z,97205
2018-03-17T05:04:31.058Z,97203
2018-03-17T05:06:59.266Z,97198
2018-03-17T05:09:27.499Z,97190
2018-03-17T05:11:55.710Z,97193
2018-03-17T05:14:23.914Z,97195
2018-03-17T05:16:57.020Z,97186
2018-03-17T05:19:25.264Z,97193
2018-03-17T05:21:53.502Z,97189
2018-03-17T05:24:21.711Z,97182
2018-03-17T05:26:57.111Z,97176
2018-03-17T05:29:25.326Z,97175
2018-03-17T05:31:53.445Z,97161
2018-03-17T05:34:21.601Z,97158
2018-03-17T05:36:54.514Z,97156
2018-03-17T05:39:23.823Z,97155
2018-03-17T05:41:51.961Z,97164
2018-03-17T05:44:20.870Z,97152
2018-03-17T05:46:58.186Z,97152
2018-03-17T05:49:26.322Z,97150
2018-03-17T05:51:54.486Z,97161
2018-03-17T05:54:23.407Z,97151
2018-03-17T05:56:55.598Z,97153
2018-03-17T05:59:23.742Z,97161
2018-03-17T06:01:51.898Z,97149
2018-03-17T06:04:20.064Z,97150
2018-03-17T06:06:53.402Z,97146
2018-03-17T06:09:21.537Z,97151
2018-03-17T06:11:49.714Z,97159
2018-03-17T06:14:17.863Z,97151
2018-03-17T06:16:47.739Z,97155
2018-03-17T06:19:15.886Z,97159
2018-03-17T06:21:44.047Z,97157
2018-03-17T06:24:12.186Z,97165
2018-03-17T06:26:42.273Z,97151
2018-03-17T06:29:10.417Z,97168
2018-03-17T06:31:38.577Z,97161
2018-03-17T06:34:07.525Z,97159
2018-03-17T06:36:35.680Z,97157
2018-03-17T06:39:03.928Z,97153
2018-03-17T06:41:32.119Z,97163
2018-03-17T06:44:00.278Z,97169
2018-03-17T06:46:28.482Z,97182
2018-03-17T06:48:56.655Z,97183
2018-03-17T06:51:24.844Z,97181
2018-03-17T06:53:53.047Z,97186
2018-03-17T06:56:22.011Z,97189
2018-03-17T06:58:50.194Z,97190
2018-03-17T07:01:18.368Z,97197
2018-03-17T07:03:46.582Z,97197
2018-03-17T07:06:17.971Z,97188
2018-03-17T07:08:46.174Z,97181
2018-03-17T07:11:15.271Z,97167
2018-03-17T07:13:44.207Z,97166
2018-03-17T07:16:12.346Z,97164
2018-03-17T07:18:41.266Z,97159
2018-03-17T07:21:09.405Z,97161
2018-03-17T07:23:38.325Z,97148
2018-03-17T07:26:07.430Z,97155
2018-03-17T07:28:35.601Z,97151
2018-03-17T07:31:03.738Z,97151
2018-03-17T07:33:32.666Z,97146
2018-03-17T07:36:02.819Z,97155
2018-03-17T07:38:30.965Z,97155
2018-03-17T07:40:59.124Z,97155
2018-03-17T07:43:27.261Z,97154
2018-03-17T07:45:59.910Z,97159
2018-03-17T07:48:28.063Z,97160
2018-03-17T07:50:56.993Z,97155
2018-03-17T07:53:25.138Z,97163
2018-03-17T07:55:54.242Z,97159
2018-03-17T07:58:22.388Z,97154
2018-03-17T08:00:50.561Z,97144
2018-03-17T08:03:18.720Z,97149
2018-03-17T08:05:46.883Z,97149
2018-03-17T08:08:15.800Z,97141
2018-03-17T08:10:43.962Z,97146
2018-03-17T08:13:12.098Z,97144
2018-03-17T08:15:42.189Z,97152
2018-03-17T08:18:10.334Z,97145
2018-03-17T08:20:38.510Z,97153
2018-03-17T08:23:06.650Z,97150
2018-03-17T08:25:35.559Z,97143
2018-03-17T08:28:03.772Z,97151
2018-03-17T08:30:33.049Z,97145
2018-03-17T08:33:01.261Z,97151
2018-03-17T08:35:29.369Z,97154
2018-03-17T08:37:58.291Z,97148
2018-03-17T08:40:26.434Z,97150
2018-03-17T08:42:54.626Z,97145
2018-03-17T08:45:22.766Z,97143
2018-03-17T08:48:04.113Z,97153
2018-03-17T08:50:32.947Z,97149
2018-03-17T08:53:01.894Z,97155
2018-03-17T08:55:30.057Z,97138
2018-03-17T08:57:58.226Z,97134
2018-03-17T09:00:26.379Z,97146
2018-03-17T09:02:54.538Z,97137
2018-03-17T09:05:22.687Z,97143
2018-03-17T09:07:50.849Z,97136
2018-03-17T09:10:18.997Z,97123
2018-03-17T09:12:47.154Z,97132
2018-03-17T09:15:15.294Z,97130
2018-03-17T09:17:45.174Z,97140
2018-03-17T09:20:13.311Z,97143
2018-03-17T09:22:41.462Z,97136
2018-03-17T09:25:09.629Z,97139
2018-03-17T09:27:37.851Z,97135
2018-03-17T09:30:06.014Z,97140
2018-03-17T09:32:34.154Z,97142
2018-03-17T09:35:02.324Z,97144
2018-03-17T09:37:32.176Z,97154
2018-03-17T09:40:00.366Z,97140
2018-03-17T09:42:28.563Z,97145
2018-03-17T09:44:56.817Z,97132
2018-03-17T09:47:26.956Z,97133
2018-03-17T09:49:55.183Z,97129
2018-03-17T09:52:23.394Z,97135
2018-03-17T09:54:51.587Z,97130
2018-03-17T09:57:21.537Z,97133
2018-03-17T09:59:49.763Z,97130
2018-03-17T10:02:18.031Z,97138
2018-03-17T10:04:46.251Z,97138
2018-03-17T10:07:25.988Z,97125
2018-03-17T10:09:54.946Z,97132
2018-03-17T10:12:23.123Z,97118
2018-03-17T10:14:51.334Z,97128
2018-03-17T10:17:19.559Z,97117
2018-03-17T10:19:47.766Z,97121
2018-03-17T10:22:16.726Z,97117
2018-03-17T10:24:44.950Z,97121
2018-03-17T10:27:13.098Z,97115
2018-03-17T10:29:41.248Z,97129
2018-03-17T10:32:09.491Z,97125
2018-03-17T10:34:37.789Z,97115
2018-03-17T10:37:11.517Z,97106
2018-03-17T10:39:39.726Z,97108
2018-03-17T10:42:07.890Z,97110
2018-03-17T10:44:36.035Z,97096
2018-03-17T10:47:14.953Z,97105
2018-03-17T10:49:43.118Z,97110
2018-03-17T10:52:11.315Z,97107
2018-03-17T10:54:39.472Z,97102
2018-03-17T10:57:47.613Z,97090
2018-03-17T11:00:22.061Z,97100
2018-03-17T11:02:53.206Z,97096
2018-03-17T11:05:21.359Z,97083
2018-03-17T11:07:57.985Z,97094
2018-03-17T11:10:26.125Z,97096
2018-03-17T11:12:54.298Z,97084
2018-03-17T11:15:22.450Z,97083
2018-03-17T11:17:52.327Z,97085
2018-03-17T11:20:20.520Z,97078
2018-03-17T11:22:49.510Z,97093
2018-03-17T11:25:18.485Z,97090
2018-03-17T11:27:47.647Z,97086
2018-03-17T11:30:15.795Z,97076
2018-03-17T11:32:44.710Z,97080
2018-03-17T11:35:13.618Z,97066
2018-03-17T11:37:41.791Z,97080
2018-03-17T11:40:09.930Z,97077
2018-03-17T11:42:38.134Z,97052
2018-03-17T11:45:06.290Z,97068
2018-03-17T11:48:01.908Z,97056
2018-03-17T11:50:30.774Z,97069
2018-03-17T11:52:59.707Z,97063
2018-03-17T11:55:27.873Z,97060
2018-03-17T11:57:58.098Z,97053
2018-03-17T12:00:27.002Z,97038
2018-03-17T12:02:55.156Z,97041
2018-03-17T12:05:23.323Z,97050
2018-03-17T12:07:58.903Z,97050
2018-03-17T12:10:27.078Z,97059
2018-03-17T12:12:55.212Z,97053
2018-03-17T12:15:23.398Z,97067
2018-03-17T12:17:52.546Z,97055
2018-03-17T12:20:21.485Z,97068
2018-03-17T12:22:50.383Z,97055
2018-03-17T12:25:18.562Z,97077
2018-03-17T12:27:47.651Z,97047
2018-03-17T12:30:15.838Z,97069
2018-03-17T12:32:43.992Z,97065
2018-03-17T12:35:12.257Z,97063
2018-03-17T12:37:40.423Z,97061
2018-03-17T12:40:08.642Z,97068
2018-03-17T12:42:36.840Z,97060
2018-03-17T12:45:05.832Z,97057
2018-03-17T12:47:35.807Z,97061
2018-03-17T12:50:03.979Z,97064
2018-03-17T12:52:32.121Z,97058
2018-03-17T12:55:00.311Z,97071
2018-03-17T12:57:36.001Z,97061
2018-03-17T13:00:04.174Z,97051
2018-03-17T13:02:32.335Z,97049
2018-03-17T13:05:00.480Z,97049
2018-03-17T13:07:30.751Z,97047
2018-03-17T13:09:58.894Z,97035
2018-03-17T13:12:27.054Z,97017
2018-03-17T13:14:55.215Z,97035
2018-03-17T13:17:23.428Z,97029
2018-03-17T13:19:51.575Z,97014
2018-03-17T13:22:19.754Z,97020
2018-03-17T13:24:47.890Z,97023
2018-03-17T13:27:40.235Z,97028
2018-03-17T13:30:09.134Z,97030
2018-03-17T13:32:55.046Z,97038
2018-03-17T13:35:23.228Z,97042
2018-03-17T13:37:53.458Z,97042
2018-03-17T13:40:46.370Z,97053
2018-03-17T13:43:14.600Z,97042
2018-03-17T13:45:42.804Z,97051
2018-03-17T13:48:11.822Z,97061
2018-03-17T13:50:40.040Z,97053
2018-03-17T13:53:08.247Z,97041
2018-03-17T13:55:37.171Z,97048
2018-03-17T13:58:05.354Z,97058
2018-03-17T14:00:33.502Z,97056
2018-03-17T14:03:01.681Z,97057
2018-03-17T14:05:29.837Z,97046
2018-03-17T14:07:58.771Z,97048
2018-03-17T14:10:26.922Z,97051
2018-03-17T14:12:55.103Z,97056
2018-03-17T14:15:23.256Z,97057
2018-03-17T14:17:52.686Z,97055
2018-03-17T14:20:20.936Z,97038
2018-03-17T14:22:49.074Z,97053
2018-03-17T14:25:17.282Z,97049
2018-03-17T14:27:50.606Z,97043
2018-03-17T14:30:18.768Z,97048
2018-03-17T14:32:46.950Z,97051
2018-03-17T14:35:15.152Z,97049
2018-03-17T14:37:47.198Z,97062
2018-03-17T14:40:15.366Z,97066
2018-03-17T14:42:43.518Z,97053
2018-03-17T14:45:11.762Z,97053
2018-03-17T14:47:40.921Z,97059
2018-03-17T14:50:09.137Z,97063
2018-03-17T14:52:38.142Z,97065
2018-03-17T14:55:06.358Z,97066
2018-03-17T14:57:38.323Z,97067
2018-03-17T15:00:06.618Z,97070
2018-03-17T15:02:34.787Z,97069
2018-03-17T15:05:03.012Z,97068
2018-03-17T15:07:36.874Z,97059
2018-03-17T15:10:05.131Z,97069
2018-03-17T15:12:33.306Z,97074
2018-03-17T15:15:01.520Z,97078
2018-03-17T15:17:35.950Z,97078
2018-03-17T15:20:04.914Z,97073
2018-03-17T15:22:33.160Z,97070
2018-03-17T15:25:01.335Z,97061
2018-03-17T15:27:29.576Z,97063
2018-03-17T15:29:57.839Z,97060
2018-03-17T15:32:26.099Z,97063
2018-03-17T15:34:55.075Z,97069
2018-03-17T15:37:23.287Z,97060
2018-03-17T15:39:51.535Z,97058
2018-03-17T15:42:19.757Z,97066
2018-03-17T15:44:47.926Z,97065
2018-03-17T15:47:16.167Z,97079
2018-03-17T15:49:45.146Z,97075
2018-03-17T15:52:13.331Z,97071
2018-03-17T15:54:42.286Z,97060
2018-03-17T15:57:21.139Z,97082
2018-03-17T15:59:49.329Z,97082
2018-03-17T16:02:17.533Z,97090
2018-03-17T16:04:45.693Z,97084
2018-03-17T16:07:25.093Z,97091
2018-03-17T16:09:53.251Z,97089
2018-03-17T16:12:21.393Z,97084
2018-03-17T16:14:49.606Z,97086
2018-03-17T16:17:19.736Z,97078
2018-03-17T16:19:49.689Z,97085
2018-03-17T16:22:17.841Z,97092
2018-03-17T16:24:46.798Z,97096
2018-03-17T16:27:29.307Z,97101
2018-03-17T16:29:57.540Z,97108
2018-03-17T16:32:25.751Z,97094
2018-03-17T16:34:53.942Z,97091
2018-03-17T16:37:22.153Z,97102
2018-03-17T16:39:50.315Z,97104
2018-03-17T16:42:19.217Z,97108
2018-03-17T16:44:47.383Z,97104
2018-03-17T16:47:24.813Z,97106
2018-03-17T16:49:52.974Z,97106
2018-03-17T16:52:21.121Z,97116
2018-03-17T16:54:50.052Z,97107
2018-03-17T16:57:19.151Z,97115
2018-03-17T16:59:47.334Z,97105
2018-03-17T17:02:15.474Z,97117
2018-03-17T17:04:43.640Z,97121
2018-03-17T17:07:14.807Z,97124
2018-03-17T17:09:42.984Z,97127
2018-03-17T17:12:11.219Z,97130
2018-03-17T17:14:39.386Z,97118
2018-03-17T17:17:07.550Z,97137
2018-03-17T17:19:36.470Z,97140
2018-03-17T17:22:04.678Z,97148
2018-03-17T17:24:33.047Z,97146
2018-03-17T17:27:02.313Z,97154
2018-03-17T17:29:30.450Z,97152
2018-03-17T17:31:58.608Z,97153
2018-03-17T17:34:26.774Z,97153
2018-03-17T17:36:56.910Z,97157
2018-03-17T17:39:25.082Z,97163
2018-03-17T17:41:53.254Z,97158
2018-03-17T17:44:21.398Z,97165
2018-03-17T17:46:49.566Z,97156
2018-03-17T17:49:18.476Z,97150
2018-03-17T17:51:46.642Z,97158
2018-03-17T17:54:14.815Z,97151
2018-03-17T17:56:44.955Z,97168
2018-03-17T17:59:13.130Z,97168
2018-03-17T18:01:41.294Z,97172
2018-03-17T18:04:09.467Z,97177
2018-03-17T18:06:42.148Z,97174
2018-03-17T18:09:10.314Z,97172
2018-03-17T18:11:38.480Z,97175
2018-03-17T18:14:06.647Z,97183
2018-03-17T18:16:36.774Z,97167
2018-03-17T18:19:04.936Z,97178
2018-03-17T18:21:33.078Z,97185
2018-03-17T18:24:01.310Z,97185
2018-03-17T18:26:29.422Z,97182
2018-03-17T18:28:58.375Z,97184
2018-03-17T18:31:26.525Z,97181
2018-03-17T18:33:54.737Z,97181
2018-03-17T18:36:22.890Z,97193
2018-03-17T18:38:51.058Z,97194
2018-03-17T18:41:19.222Z,97191
2018-03-17T18:43:47.418Z,97197
2018-03-17T18:46:15.571Z,97187
2018-03-17T18:48:43.755Z,97199
2018-03-17T18:51:11.933Z,97203
2018-03-17T18:53:40.102Z,97194
2018-03-17T18:56:09.246Z,97190
2018-03-17T18:58:38.307Z,97196
2018-03-17T19:01:06.556Z,97201
2018-03-17T19:03:34.803Z,97192
2018-03-17T19:06:03.004Z,97197
2018-03-17T19:08:31.178Z,97198
2018-03-17T19:10:59.443Z,97198
2018-03-17T19:13:27.676Z,97211
2018-03-17T19:15:58.630Z,97206
2018-03-17T19:18:26.895Z,97202
2018-03-17T19:20:55.891Z,97196
2018-03-17T19:23:24.873Z,97196
2018-03-17T19:25:58.637Z,97189
2018-03-17T19:28:26.838Z,97207
2018-03-17T19:30:55.116Z,97205
2018-03-17T19:33:23.350Z,97212
2018-03-17T19:35:52.579Z,97203
2018-03-17T19:38:20.792Z,97200
2018-03-17T19:40:49.803Z,97210
2018-03-17T19:43:18.031Z,97206
2018-03-17T19:45:58.679Z,97209
2018-03-17T19:48:26.889Z,97195
2018-03-17T19:50:55.920Z,97204
2018-03-17T19:53:24.157Z,97207
2018-03-17T19:55:57.685Z,97206
2018-03-17T19:58:25.846Z,97205
2018-03-17T20:00:54.027Z,97210
2018-03-17T20:03:22.257Z,97208
2018-03-17T20:06:08.113Z,97198
2018-03-17T20:08:36.311Z,97200
2018-03-17T20:11:04.483Z,97218
2018-03-17T20:13:32.659Z,97206
2018-03-17T20:16:02.768Z,97203
2018-03-17T20:18:31.029Z,97215
2018-03-17T20:21:00.019Z,97218
2018-03-17T20:23:28.235Z,97219
2018-03-17T20:25:56.452Z,97219
2018-03-17T20:28:28.045Z,97213
2018-03-17T20:30:56.487Z,97226
2018-03-17T20:33:24.743Z,97231
2018-03-17T20:36:01.910Z,97232
2018-03-17T20:38:30.179Z,97224
2018-03-17T20:40:58.403Z,97235
2018-03-17T20:43:26.603Z,97239
2018-03-17T20:46:00.923Z,97232
2018-03-17T20:48:29.102Z,97234
2018-03-17T20:50:57.259Z,97232
2018-03-17T20:53:25.447Z,97228
2018-03-17T20:56:07.716Z,97225
2018-03-17T20:58:35.890Z,97220
2018-03-17T21:01:04.058Z,97228
2018-03-17T21:03:32.284Z,97219
2018-03-17T21:06:00.514Z,97220
2018-03-17T21:08:28.759Z,97227
2018-03-17T21:10:57.793Z,97229
2018-03-17T21:13:26.059Z,97219
2018-03-17T21:16:01.521Z,97213
2018-03-17T21:18:29.716Z,97214
2018-03-17T21:20:57.986Z,97207
2018-03-17T21:23:26.259Z,97215
2018-03-17T21:25:55.446Z,97218
2018-03-17T21:28:23.728Z,97209
2018-03-17T21:30:51.942Z,97214
2018-03-17T21:33:20.891Z,97210
2018-03-17T21:35:56.450Z,97218
2018-03-17T21:38:24.672Z,97206
2018-03-17T21:40:52.960Z,97219
2018-03-17T21:43:21.143Z,97223
2018-03-17T21:45:51.379Z,97208
2018-03-17T21:48:19.571Z,97211
2018-03-17T21:50:47.807Z,97210
2018-03-17T21:53:15.982Z,97204
2018-03-17T21:55:51.208Z,97201
2018-03-17T21:58:19.446Z,97201
2018-03-17T22:00:47.657Z,97194
2018-03-17T22:03:16.684Z,97194
2018-03-17T22:05:53.191Z,97212
2018-03-17T22:08:21.447Z,97210
2018-03-17T22:10:49.644Z,97213
2018-03-17T22:13:18.643Z,97213
2018-03-17T22:15:52.996Z,97216
2018-03-17T22:18:21.292Z,97213
2018-03-17T22:20:49.543Z,97210
2018-03-17T22:23:17.809Z,97204
2018-03-17T22:25:46.912Z,97202
2018-03-17T22:28:15.213Z,97203
2018-03-17T22:30:43.428Z,97197
2018-03-17T22:33:12.400Z,97198
2018-03-17T22:35:40.659Z,97202
2018-03-17T22:38:08.954Z,97207
2018-03-17T22:40:38.055Z,97202
2018-03-17T22:43:06.326Z,97200
2018-03-17T22:45:34.506Z,97213
2018-03-17T22:48:03.503Z,97203
2018-03-17T22:50:31.683Z,97203
2018-03-17T22:52:59.888Z,97197
2018-03-17T22:55:28.135Z,97199
2018-03-17T22:57:57.124Z,97197
2018-03-17T23:00:26.130Z,97200
2018-03-17T23:02:55.075Z,97206
2018-03-17T23:05:23.291Z,97210
2018-03-17T23:07:59.831Z,97204
2018-03-17T23:10:28.055Z,97208
2018-03-17T23:12:56.277Z,97198
2018-03-17T23:15:24.494Z,97198
2018-03-17T23:18:14.755Z,97188
2018-03-17T23:20:43.003Z,97206
2018-03-17T23:23:11.233Z,97199
2018-03-17T23:25:40.271Z,97207
2018-03-17T23:28:08.496Z,97194
2018-03-17T23:30:38.250Z,97202
2018-03-17T23:33:06.455Z,97203
2018-03-17T23:35:34.675Z,97199
2018-03-17T23:38:02.854Z,97195
2018-03-17T23:40:31.099Z,97195
2018-03-17T23:43:00.066Z,97205
2018-03-17T23:45:28.291Z,97202
2018-03-17T23:48:10.323Z,97201
2018-03-17T23:50:38.590Z,97198
2018-03-17T23:53:06.798Z,97209
2018-03-17T23:55:35.081Z,97207
2018-03-17T23:58:03.355Z,97217
